Alder, MT

8:52 AM MDT on August 27, 2014 (GMT -0600)
McAllister Station | Change Station
CLOSE
Current Station
Personal Weather Station
Location: McAllister, MT
Elevation: 4915 ft
Nearby Weather Stations

Elev 4915 ft 45.42 °N, 111.73 °W | Updated 16 seconds ago

Clear
Clear
55.6 °F
Feels Like 55.6 °F
N
0.0
Wind Variable Wind from WNW
Gusts 1.0 mph

Today
High -- | Low -- °F
--% Chance of Precip.
Yesterday
High -- | Low -- °F
Precip. -- in
6:44 AM 8:14 PM
Waxing Crescent, 4% visible
Pressure 30.13 in
Visibility 10.0 miles
Clouds Clear
Dew Point 47 °F
Humidity 73%
Rainfall 0.00 in
Snow Depth Not available.
UV 1 out of 12
Pollen 7.60 out of 12
Air Quality Not available.
Flu Activity Not available.
METAR KDLN 271353Z AUTO 21005KT 10SM CLR 10/06 A3023 RMK AO2 SLP201 T01000061

More Conditions Fewer Conditions

Pressure 30.13 in
Visibility 10.0 miles
Clouds Clear
Dew Point 47 °F
Humidity 73%
Rainfall 0.00 in
Snow Depth Not available.
UV 1 out of 12
Pollen 7.60 out of 12
Air Quality Not available.
Flu Activity Not available.
METAR KDLN 271353Z AUTO 21005KT 10SM CLR 10/06 A3023 RMK AO2 SLP201 T01000061

More Conditions Fewer Conditions

10-Day Weather Forecast

Almanac

Astronomy

Aug. 27, 2014 Rise Set
Actual Time 6:44 AM MDT 8:14 PM MDT
Civil Twilight 6:13 AM MDT 8:45 PM MDT
Nautical Twilight 5:35 AM MDT 9:22 PM MDT
Astronomical Twilight 4:55 AM MDT 10:02 PM MDT
Moon 8:51 AM MDT 9:00 PM MDT
Length of Visible Light 14h 32m
Length of Day
13h 30m
Tomorrow will be 3m 0s shorter.
Waxing Crescent, 4% of the Moon is Illuminated
Today
Waxing Crescent
Sep 2
First Quarter
Sep 8
Full
Sep 15
Last Quarter
Sep 24
New

Today's Extremes

State Highs State Lows

Community

WunderPhotos

Upload Photos

1,747,701 photos uploaded!

Nearby

Snow Depth

Station Depth Elevation
Short Creek 1 in 7000 ft
Lone Mountain 0 in 8880 ft
Divide 0 in 7800 ft
Tepee Creek 0 in 8000 ft
Basin Creek 1 in 7180 ft

Earthquake Activity

City Distance Mag. Time & Date
No recent earthquake activity has been reported nearby.
Minimum magnitude displayed is 2.5.

Coastal Water Temperatures

Place Temperature
No Stations Reporting

Nearby Weather Stations